Terminal Aerodrome Forecast
Issued by NWS

Home | Current Version | Previous Version | Text Only | Print | Product List | Glossary On
Versions: 1 2 3 4 5 6 7 8 9 10 11 12 13
000
FTUS42 KRAH 232337
TAFRWI
TAF
KRWI 232337Z 2400/2424 VRB03KT P6SM SKC
     FM240600 VRB02KT 3SM BR SCT100
     FM240800 00000KT 1/2SM FG BKN003
     FM241300 VRB03KT 6SM BR SCT007 BKN080
     FM241400 19004KT P6SM SCT025 SCT090
     FM241700 19005KT P6SM BKN050=

USA.gov is the U.S. government's official web portal to all federal, state and local government web resources and services.